Accueil
METAR-TAF:

METAR-TAF

Aéroports :

Aéroport Lourdes-de-Blanc-Sablon

Blanc-Sablon, Québec, Canada

latitude: 51-27N, longitude: 057-11W, altitude: 30 m

Observation

Le bulletin a été fait il y a 21 minutes, à 03:00 UTC
Vent 4 kt de est/sud-est
Température 8°C
Humidité 87%
Pression 1014 hPa
Visibilité: 24.1 km
Quelques nuages à une hauteur de 10000 ft

METAR: CYBX 190300Z 11004KT 15SM FEW100 08/06 A2994 RMK AC2 SLP141

Heure: 23:21 (03:21 UTC)

Prévision

Le bulletin a été fait il y a 1 heure et 37 minutes, à 01:44 UTC
Prévision valable du 19 à 02 UTC au 19 à 14 UTC
Vent 3 kt de direction variable
Visibilité: 10 km
Quelques nuages à une hauteur de 10000 ft
Temporairement
du 19 à 02 UTC au 19 à 08 UTC
Visibilité: 3.2 km
brume
Evoluant progressivement
du 19 à 04 UTC au 19 à 06 UTC
Vent 5 kt de nord/nord-ouest

TAF: CYBX 190144Z 1902/1914 VRB03KT P6SM FEW100 TEMPO 1902/1908 2SM BR BECMG 1904/1906 34005KT RMK NXT FCST BY 190800Z

Observations et prévisions météorologiques de plus de 4000 aéroports (messages METAR et TAF).

Les stations disponibles sont représentées par des disques jaunes et rouges sur la carte.

Passer la souris dessus pour voir le nom de la station.

Cliquer dessus pour voir les observations et prévisions météorologiques.

Pour changer de carte: cliquez sur les boutons verts avec une croix noire pour zoomer, sur le bouton vert avec un tiret pour effectuer un zoom arrière, ou sur les flèches vertes pour les cartes adjacentes.


METAR-TAF: